createdAt,value
2022-10-10T00:03:23.184Z,40.83
2022-10-10T00:08:25.088Z,40.69
2022-10-10T00:13:27.179Z,40.84
2022-10-10T00:18:29.817Z,41.18
2022-10-10T00:23:31.778Z,41.14
2022-10-10T00:28:33.899Z,41.20
2022-10-10T00:33:36.857Z,41.10
2022-10-10T00:38:38.717Z,40.84
2022-10-10T00:43:40.952Z,41.03
2022-10-10T00:54:34.229Z,41.19
2022-10-10T00:59:39.074Z,40.90
2022-10-10T01:04:45.618Z,40.92
2022-10-10T01:09:51.353Z,41.26
2022-10-10T01:14:59.038Z,41.13
2022-10-10T01:20:37.968Z,41.33
2022-10-10T01:26:10.528Z,41.35
2022-10-10T01:31:16.218Z,41.09
2022-10-10T01:36:28.096Z,41.31
2022-10-10T01:41:58.995Z,41.26
2022-10-10T01:47:01.093Z,41.13
2022-10-10T01:52:51.360Z,40.96
2022-10-10T01:58:18.341Z,41.34
2022-10-10T02:03:29.718Z,41.06
2022-10-10T02:08:45.369Z,41.16
2022-10-10T02:13:54.792Z,41.27
2022-10-10T02:19:00.123Z,41.13
2022-10-10T02:24:07.231Z,41.32
2022-10-10T02:29:20.202Z,41.44
2022-10-10T02:34:26.332Z,41.16
2022-10-10T02:39:33.749Z,41.10
2022-10-10T02:44:37.378Z,40.91
2022-10-10T02:49:39.444Z,41.12
2022-10-10T02:54:41.735Z,41.09
2022-10-10T02:59:43.493Z,40.93
2022-10-10T03:04:45.459Z,41.13
2022-10-10T03:09:47.498Z,40.88
2022-10-10T03:14:49.449Z,41.18
2022-10-10T03:19:51.273Z,41.00
2022-10-10T03:24:53.239Z,41.08
2022-10-10T03:29:55.148Z,41.14
2022-10-10T03:34:56.965Z,41.14
2022-10-10T03:39:58.756Z,41.09
2022-10-10T03:45:00.555Z,41.07
2022-10-10T03:50:02.367Z,41.15
2022-10-10T03:55:04.513Z,40.82
2022-10-10T04:00:06.898Z,41.01
2022-10-10T04:05:08.971Z,41.00
2022-10-10T04:10:11.103Z,41.40
2022-10-10T04:15:13.123Z,41.24
2022-10-10T04:20:14.942Z,41.19
2022-10-10T04:25:16.815Z,41.24
2022-10-10T04:30:19.063Z,41.29
2022-10-10T04:35:20.811Z,41.11
2022-10-10T04:40:26.440Z,40.78
2022-10-10T04:45:28.726Z,40.83
2022-10-10T04:50:30.873Z,40.41
2022-10-10T04:55:32.751Z,41.74
2022-10-10T05:00:34.699Z,42.06
2022-10-10T05:05:36.438Z,42.19
2022-10-10T05:10:39.506Z,41.82
2022-10-10T05:15:41.915Z,41.85
2022-10-10T05:20:44.303Z,41.77
2022-10-10T05:25:49.265Z,42.22
2022-10-10T05:30:52.542Z,43.10
2022-10-10T05:36:02.010Z,42.48
2022-10-10T05:41:04.301Z,42.36
2022-10-10T05:46:06.339Z,42.07
2022-10-10T05:51:08.465Z,42.23
2022-10-10T05:56:11.705Z,41.90
2022-10-10T06:01:13.581Z,41.95
2022-10-10T06:06:15.595Z,41.82
2022-10-10T06:11:19.357Z,41.62
2022-10-10T06:16:26.220Z,41.49
2022-10-10T06:21:28.060Z,41.86
2022-10-10T06:26:29.987Z,41.52
2022-10-10T06:31:31.871Z,41.31
2022-10-10T06:36:33.934Z,41.64
2022-10-10T06:41:36.088Z,41.54
2022-10-10T06:46:38.196Z,41.87
2022-10-10T06:51:40.456Z,41.61
2022-10-10T06:56:42.467Z,41.17
2022-10-10T07:01:44.451Z,41.16
2022-10-10T07:06:46.305Z,41.31
2022-10-10T07:11:48.231Z,41.27
2022-10-10T07:16:50.078Z,41.18
2022-10-10T07:21:52.278Z,41.07
2022-10-10T07:27:03.432Z,40.77
2022-10-10T07:32:06.976Z,40.79
2022-10-10T07:37:08.883Z,40.82
2022-10-10T07:42:10.898Z,40.80
2022-10-10T07:47:12.969Z,40.86
2022-10-10T07:52:14.857Z,40.73
2022-10-10T07:57:16.682Z,40.91
2022-10-10T08:02:18.854Z,40.84
2022-10-10T08:07:21.503Z,41.00
2022-10-10T08:12:23.464Z,40.96
2022-10-10T08:17:25.423Z,40.88
2022-10-10T08:22:27.418Z,41.10
2022-10-10T08:27:29.242Z,40.82
2022-10-10T08:32:31.210Z,40.95
2022-10-10T08:37:37.240Z,41.08
2022-10-10T08:42:49.084Z,40.85
2022-10-10T08:48:10.483Z,40.62
2022-10-10T08:53:17.323Z,40.80
2022-10-10T08:58:19.012Z,40.75
2022-10-10T09:03:34.072Z,41.56
2022-10-10T09:08:35.905Z,42.17
2022-10-10T09:13:47.796Z,41.89
2022-10-10T09:19:24.702Z,41.93
2022-10-10T09:24:33.846Z,42.09
2022-10-10T09:29:49.760Z,41.60
2022-10-10T09:34:59.550Z,41.88
2022-10-10T09:40:11.993Z,41.66
2022-10-10T09:45:30.847Z,41.40
2022-10-10T09:50:32.662Z,41.50
2022-10-10T09:55:39.026Z,41.64
2022-10-10T10:00:40.979Z,41.72
2022-10-10T10:05:53.174Z,41.70
2022-10-10T10:10:58.876Z,41.92
2022-10-10T10:16:04.221Z,41.65
2022-10-10T10:21:10.979Z,41.88
2022-10-10T10:26:41.499Z,41.83
2022-10-10T10:31:57.914Z,41.70
2022-10-10T10:37:14.604Z,41.57
2022-10-10T10:42:28.752Z,41.64
2022-10-10T10:47:49.654Z,41.68
2022-10-10T10:53:00.748Z,41.79
2022-10-10T11:05:24.737Z,42.38
2022-10-10T11:09:50.812Z,43.41
2022-10-10T11:15:13.489Z,43.74
2022-10-10T11:20:42.082Z,43.61
2022-10-10T11:25:58.824Z,43.88
2022-10-10T11:31:08.979Z,43.87
2022-10-10T11:36:20.332Z,43.97
2022-10-10T11:41:35.180Z,43.98
2022-10-10T11:46:45.726Z,44.08
2022-10-10T11:52:28.886Z,44.55
2022-10-10T11:57:42.565Z,44.57
2022-10-10T12:02:46.526Z,44.65
2022-10-10T12:07:57.236Z,44.88
2022-10-10T12:13:16.851Z,44.68
2022-10-10T12:18:44.150Z,44.60
2022-10-10T12:24:14.246Z,44.93
2022-10-10T12:29:47.769Z,44.94
2022-10-10T12:34:52.637Z,44.76
2022-10-10T12:40:03.914Z,44.84
2022-10-10T12:45:38.264Z,45.05
2022-10-10T12:50:42.286Z,44.71
2022-10-10T12:56:14.343Z,44.88
2022-10-10T13:01:25.953Z,44.88
2022-10-10T13:06:39.653Z,45.20
2022-10-10T13:12:27.608Z,45.57
2022-10-10T13:17:32.850Z,45.17
2022-10-10T13:22:37.199Z,45.77
2022-10-10T13:27:39.048Z,45.20
2022-10-10T13:32:41.074Z,45.71
2022-10-10T13:37:44.185Z,45.43
2022-10-10T13:42:50.092Z,45.25
2022-10-10T13:48:12.509Z,45.24
2022-10-10T13:53:26.274Z,45.18
2022-10-10T13:58:50.196Z,45.21
2022-10-10T14:03:54.123Z,45.47
2022-10-10T14:09:07.343Z,45.46
2022-10-10T14:14:17.211Z,45.51
2022-10-10T14:19:19.735Z,45.87
2022-10-10T14:24:21.610Z,45.66
2022-10-10T14:29:23.548Z,46.08
2022-10-10T14:34:25.625Z,46.84
2022-10-10T14:39:27.543Z,47.45
2022-10-10T14:44:29.609Z,47.57
2022-10-10T14:49:31.562Z,47.43
2022-10-10T14:54:33.279Z,47.56
2022-10-10T14:59:48.476Z,47.51
2022-10-10T15:04:51.529Z,47.55
2022-10-10T15:15:15.089Z,47.69
2022-10-10T15:20:17.054Z,47.84
2022-10-10T15:25:18.921Z,47.90
2022-10-10T15:30:20.936Z,47.89
2022-10-10T15:35:26.342Z,47.49
2022-10-10T15:40:29.566Z,47.41
2022-10-10T15:45:54.508Z,47.40
2022-10-10T15:50:53.483Z,47.17
2022-10-10T15:55:55.224Z,47.22
2022-10-10T16:00:57.186Z,47.29
2022-10-10T16:06:02.889Z,47.01
2022-10-10T16:11:10.880Z,46.50
2022-10-10T16:16:12.983Z,46.22
2022-10-10T16:21:20.238Z,46.18
2022-10-10T16:26:26.790Z,46.16
2022-10-10T16:31:30.058Z,46.24
2022-10-10T16:36:34.573Z,46.25
2022-10-10T16:41:52.438Z,46.27
2022-10-10T16:46:54.411Z,46.22
2022-10-10T16:51:56.322Z,46.45
2022-10-10T16:56:58.340Z,46.55
2022-10-10T17:02:00.378Z,46.93
2022-10-10T17:07:02.793Z,46.78
2022-10-10T17:12:04.859Z,46.61
2022-10-10T17:17:12.082Z,46.70
2022-10-10T17:22:14.695Z,46.84
2022-10-10T17:27:16.438Z,46.57
2022-10-10T17:32:18.537Z,46.40
2022-10-10T17:37:20.318Z,46.59
2022-10-10T17:42:22.255Z,46.57
2022-10-10T17:47:24.139Z,46.27
2022-10-10T17:52:26.350Z,46.41
2022-10-10T17:57:28.470Z,46.01
2022-10-10T18:02:30.506Z,45.82
2022-10-10T18:07:32.349Z,45.64
2022-10-10T18:12:34.275Z,45.34
2022-10-10T18:17:36.267Z,45.62
2022-10-10T18:22:38.464Z,45.35
2022-10-10T18:27:40.572Z,45.22
2022-10-10T18:32:42.406Z,45.48
2022-10-10T18:37:44.363Z,45.06
2022-10-10T18:42:46.817Z,44.99
2022-10-10T18:47:48.654Z,44.97
2022-10-10T18:52:51.049Z,44.95
2022-10-10T18:57:52.947Z,44.92
2022-10-10T19:02:54.863Z,44.55
2022-10-10T19:07:56.637Z,44.88
2022-10-10T19:12:58.615Z,44.55
2022-10-10T19:18:01.522Z,44.98
2022-10-10T19:23:03.224Z,44.77
2022-10-10T19:28:06.581Z,44.71
2022-10-10T19:33:09.458Z,44.86
2022-10-10T19:38:11.502Z,44.60
2022-10-10T19:43:13.574Z,44.29
2022-10-10T19:48:15.793Z,43.93
2022-10-10T19:53:18.710Z,44.07
2022-10-10T19:58:20.486Z,44.05
2022-10-10T20:03:22.525Z,44.18
2022-10-10T20:08:24.468Z,43.61
2022-10-10T20:13:26.656Z,43.87
2022-10-10T20:18:28.757Z,44.02
2022-10-10T20:23:31.122Z,43.56
2022-10-10T20:28:33.564Z,43.90
2022-10-10T20:33:35.489Z,43.89
2022-10-10T20:38:37.823Z,44.12
2022-10-10T20:43:39.846Z,43.61
2022-10-10T20:48:42.337Z,44.09
2022-10-10T20:53:44.468Z,43.45
2022-10-10T20:58:46.732Z,43.70
2022-10-10T21:03:49.135Z,43.76
2022-10-10T21:08:52.643Z,43.76
2022-10-10T21:13:57.438Z,43.58
2022-10-10T21:19:00.536Z,43.42
2022-10-10T21:24:04.638Z,43.54
2022-10-10T21:29:06.512Z,43.06
2022-10-10T21:34:11.191Z,43.62
2022-10-10T21:39:14.512Z,43.59
2022-10-10T21:44:16.907Z,43.22
2022-10-10T21:49:18.801Z,43.18
2022-10-10T21:54:20.472Z,43.26
2022-10-10T21:59:22.314Z,43.24
2022-10-10T22:04:28.683Z,43.06
2022-10-10T22:09:30.850Z,42.75
2022-10-10T22:14:32.628Z,43.01
2022-10-10T22:19:36.058Z,42.91
2022-10-10T22:24:38.007Z,43.07
2022-10-10T22:29:39.762Z,42.81
2022-10-10T22:34:41.557Z,42.91
2022-10-10T22:39:43.463Z,42.61
2022-10-10T22:44:45.412Z,42.79
2022-10-10T22:49:47.258Z,42.83
2022-10-10T22:54:49.107Z,42.43
2022-10-10T22:59:50.877Z,42.37
2022-10-10T23:04:52.719Z,42.28
2022-10-10T23:09:54.608Z,42.49
2022-10-10T23:14:56.523Z,42.60
2022-10-10T23:19:58.299Z,42.72
2022-10-10T23:25:00.240Z,42.25
2022-10-10T23:30:03.457Z,42.43
2022-10-10T23:35:05.701Z,41.99
2022-10-10T23:40:08.431Z,42.54
2022-10-10T23:45:10.726Z,42.37
2022-10-10T23:50:12.920Z,41.97
2022-10-10T23:55:15.054Z,42.17
